Time;durP1;ratioP1;P1;durP2;ratioP2;P2;SDS_P1;SDS_P2;PMS_P1;PMS_P2;Temp;Humidity;BMP_temperature;BMP_pressure;BME280_temperature;BME280_humidity;BME280_pressure;Samples;Min_cycle;Max_cycle;Signal;HPM_P1;HPM_P2
2023/06/06 00:00:09;;;;;;;5.18;3.55;;;;;;;;;;5053435;28;20438;-77
2023/06/06 00:02:34;;;;;;;8.60;3.47;;;;;;;;;;5053160;28;20022;-77
2023/06/06 00:05:00;;;;;;;4.55;3.30;;;;;;;;;;5053362;28;20028;-76
2023/06/06 00:07:26;;;;;;;6.95;3.55;;;;;;;;;;5053389;28;20464;-78
2023/06/06 00:09:52;;;;;;;5.82;3.70;;;;;;;;;;5052883;28;20055;-75
2023/06/06 00:12:17;;;;;;;6.13;4.00;;;;;;;;;;5053150;28;20444;-78
2023/06/06 00:14:42;;;;;;;4.83;3.47;;;;;;;;;;5052839;28;20265;-76
2023/06/06 00:17:10;;;;;;;7.40;3.47;;;;;;;;;;5053023;28;20277;-77
2023/06/06 00:19:40;;;;;;;7.43;3.35;;;;;;;;;;5052750;28;20250;-77
2023/06/06 00:22:06;;;;;;;5.43;3.67;;;;;;;;;;5052671;28;20078;-77
2023/06/06 00:24:32;;;;;;;6.18;3.60;;;;;;;;;;5052479;28;20036;-77
2023/06/06 00:26:57;;;;;;;5.13;3.60;;;;;;;;;;5034805;28;20025;-76
2023/06/06 00:29:23;;;;;;;5.60;3.70;;;;;;;;;;5053810;28;20032;-78
2023/06/06 00:31:48;;;;;;;6.70;3.80;;;;;;;;;;5038794;28;20272;-77
2023/06/06 00:34:13;;;;;;;4.10;3.40;;;;;;;;;;5056274;28;20032;-78
2023/06/06 00:36:38;;;;;;;4.33;3.33;;;;;;;;;;5056176;28;20273;-77
2023/06/06 00:39:04;;;;;;;8.33;3.50;;;;;;;;;;5038728;28;20270;-77
2023/06/06 00:41:29;;;;;;;8.33;3.73;;;;;;;;;;5056728;28;20341;-77
2023/06/06 00:43:54;;;;;;;5.73;3.50;;;;;;;;;;5058956;28;20293;-77
2023/06/06 00:46:19;;;;;;;6.57;3.67;;;;;;;;;;5061860;28;20269;-78
2023/06/06 00:48:45;;;;;;;5.32;3.53;;;;;;;;;;5045186;28;20262;-78
2023/06/06 00:51:11;;;;;;;11.75;3.78;;;;;;;;;;5063172;28;20028;-78
2023/06/06 00:53:37;;;;;;;8.77;3.67;;;;;;;;;;5063462;28;20033;-77
2023/06/06 00:56:03;;;;;;;5.55;3.75;;;;;;;;;;5046282;28;20078;-79
2023/06/06 00:58:29;;;;;;;5.55;3.60;;;;;;;;;;5063608;28;20036;-79
2023/06/06 01:00:56;;;;;;;5.07;3.53;;;;;;;;;;5063015;28;20095;-79
2023/06/06 01:03:24;;;;;;;7.18;4.07;;;;;;;;;;5062979;28;20067;-79
2023/06/06 01:05:53;;;;;;;6.95;3.55;;;;;;;;;;5044970;28;20028;-79
2023/06/06 01:08:19;;;;;;;5.25;3.50;;;;;;;;;;5062220;28;20426;-78
2023/06/06 01:10:45;;;;;;;10.20;4.43;;;;;;;;;;5062157;28;20135;-77
2023/06/06 01:13:23;;;;;;;6.22;3.72;;;;;;;;;;5044816;28;20373;-78
2023/06/06 01:15:53;;;;;;;7.10;4.00;;;;;;;;;;5044713;28;20483;-78
2023/06/06 01:18:19;;;;;;;6.97;3.88;;;;;;;;;;5062343;28;20039;-78
2023/06/06 01:20:44;;;;;;;8.32;3.90;;;;;;;;;;5061901;28;20029;-78
2023/06/06 01:23:11;;;;;;;4.90;3.65;;;;;;;;;;5042850;28;20088;-78
2023/06/06 01:25:37;;;;;;;5.53;3.50;;;;;;;;;;5060713;28;20075;-78
2023/06/06 01:28:04;;;;;;;5.30;3.83;;;;;;;;;;5061196;28;20064;-78
2023/06/06 01:30:31;;;;;;;5.65;4.13;;;;;;;;;;5060271;28;20021;-78
2023/06/06 01:33:09;;;;;;;4.97;3.72;;;;;;;;;;5060137;28;20063;-78
2023/06/06 01:36:00;;;;;;;5.03;3.92;;;;;;;;;;5060595;28;20101;-78
2023/06/06 01:38:35;;;;;;;6.15;4.18;;;;;;;;;;5051361;28;20040;-78
2023/06/06 01:41:03;;;;;;;6.22;3.72;;;;;;;;;;5042685;28;20021;-78
2023/06/06 01:43:31;;;;;;;8.80;3.95;;;;;;;;;;5042804;28;20021;-78
2023/06/06 01:45:57;;;;;;;6.95;4.60;;;;;;;;;;5059914;28;20029;-77
2023/06/06 01:48:24;;;;;;;6.30;4.00;;;;;;;;;;5042082;28;20025;-78
2023/06/06 01:50:50;;;;;;;6.88;4.30;;;;;;;;;;5058657;28;20033;-78
2023/06/06 01:53:15;;;;;;;6.30;4.05;;;;;;;;;;5059105;28;20384;-78
2023/06/06 01:55:41;;;;;;;6.85;3.83;;;;;;;;;;5059234;28;20055;-78
2023/06/06 01:58:07;;;;;;;6.50;4.18;;;;;;;;;;5059891;28;20032;-78
2023/06/06 02:00:32;;;;;;;7.57;4.25;;;;;;;;;;5041730;28;20377;-78
2023/06/06 02:02:57;;;;;;;5.50;3.83;;;;;;;;;;5059722;28;20036;-78
2023/06/06 02:05:22;;;;;;;6.20;4.30;;;;;;;;;;5042254;28;20265;-78
2023/06/06 02:07:49;;;;;;;6.57;4.30;;;;;;;;;;5058938;28;20258;-78
2023/06/06 02:10:15;;;;;;;7.65;4.20;;;;;;;;;;5041512;28;20028;-78
2023/06/06 02:12:41;;;;;;;7.15;4.22;;;;;;;;;;5058841;28;20029;-78
2023/06/06 02:15:07;;;;;;;6.40;4.05;;;;;;;;;;5041335;28;20037;-78
2023/06/06 02:17:33;;;;;;;6.95;4.32;;;;;;;;;;5040677;28;20427;-78
2023/06/06 02:19:58;;;;;;;6.18;4.45;;;;;;;;;;5041145;28;20021;-78
2023/06/06 02:22:24;;;;;;;5.78;4.32;;;;;;;;;;5058071;28;20025;-78
2023/06/06 02:24:52;;;;;;;7.55;4.40;;;;;;;;;;5058960;28;20058;-78
2023/06/06 02:27:19;;;;;;;5.63;4.32;;;;;;;;;;5058495;28;20032;-78
2023/06/06 02:29:45;;;;;;;6.57;4.70;;;;;;;;;;5058626;28;20044;-78
2023/06/06 02:32:11;;;;;;;8.07;4.63;;;;;;;;;;5040650;28;20059;-78
2023/06/06 02:34:36;;;;;;;4.50;4.00;;;;;;;;;;5058694;28;20515;-78
2023/06/06 02:37:06;;;;;;;6.38;4.40;;;;;;;;;;5059385;28;20508;-78
2023/06/06 02:39:31;;;;;;;5.82;4.50;;;;;;;;;;5058252;28;20028;-78
2023/06/06 02:41:56;;;;;;;5.93;4.13;;;;;;;;;;5057202;28;20021;-78
2023/06/06 02:44:22;;;;;;;7.28;4.57;;;;;;;;;;5039429;28;20258;-78
2023/06/06 02:46:47;;;;;;;10.60;5.03;;;;;;;;;;5059226;28;20029;-79
2023/06/06 02:49:12;;;;;;;5.83;4.87;;;;;;;;;;5059720;28;20258;-77
2023/06/06 02:51:37;;;;;;;9.70;5.27;;;;;;;;;;5058441;28;20282;-78
2023/06/06 02:54:03;;;;;;;7.77;4.73;;;;;;;;;;5040111;28;20280;-79
2023/06/06 02:56:28;;;;;;;8.65;4.97;;;;;;;;;;5058931;28;20261;-78
2023/06/06 02:58:54;;;;;;;6.65;4.97;;;;;;;;;;5060071;28;20025;-79
2023/06/06 03:01:21;;;;;;;7.03;5.05;;;;;;;;;;5059265;28;20506;-79
2023/06/06 03:03:46;;;;;;;7.72;5.43;;;;;;;;;;5059364;28;20032;-77
2023/06/06 03:06:12;;;;;;;7.03;5.03;;;;;;;;;;5058274;28;20025;-78
2023/06/06 03:08:42;;;;;;;7.25;5.18;;;;;;;;;;5041861;28;20028;-78
2023/06/06 03:11:07;;;;;;;9.02;4.95;;;;;;;;;;5059964;28;20055;-78
2023/06/06 03:13:32;;;;;;;6.03;4.85;;;;;;;;;;5059468;28;20084;-80
2023/06/06 03:15:58;;;;;;;8.67;5.00;;;;;;;;;;5059001;28;20065;-80
2023/06/06 03:18:24;;;;;;;10.07;5.63;;;;;;;;;;5060550;28;20262;-78
2023/06/06 03:20:53;;;;;;;8.70;5.40;;;;;;;;;;5042249;28;20047;-80
2023/06/06 03:23:19;;;;;;;6.80;4.95;;;;;;;;;;5060762;28;20086;-80
2023/06/06 03:25:45;;;;;;;8.98;5.72;;;;;;;;;;5060014;28;20098;-80
2023/06/06 03:28:11;;;;;;;8.38;5.50;;;;;;;;;;5060420;28;20021;-79
2023/06/06 03:30:37;;;;;;;7.68;5.60;;;;;;;;;;5059519;28;20072;-78
2023/06/06 03:33:06;;;;;;;7.43;5.13;;;;;;;;;;5058477;28;20025;-78
2023/06/06 03:35:32;;;;;;;9.02;5.90;;;;;;;;;;5060131;28;20028;-79
2023/06/06 03:37:58;;;;;;;8.52;5.55;;;;;;;;;;5060621;28;20029;-79
2023/06/06 03:40:23;;;;;;;8.52;5.53;;;;;;;;;;5042921;28;20029;-79
2023/06/06 03:42:52;;;;;;;8.40;5.65;;;;;;;;;;5041504;28;20021;-79
2023/06/06 03:45:18;;;;;;;8.15;5.65;;;;;;;;;;5059103;28;20087;-78
2023/06/06 03:47:44;;;;;;;8.63;5.60;;;;;;;;;;5058868;28;20029;-78
2023/06/06 03:50:10;;;;;;;7.25;5.97;;;;;;;;;;5059006;28;20074;-78
2023/06/06 03:52:36;;;;;;;8.38;5.85;;;;;;;;;;5042566;28;20028;-79
2023/06/06 03:55:01;;;;;;;7.50;6.20;;;;;;;;;;5059882;28;20025;-79
2023/06/06 03:57:26;;;;;;;8.07;5.90;;;;;;;;;;5060162;28;20044;-79
2023/06/06 03:59:51;;;;;;;8.20;6.33;;;;;;;;;;5061363;28;20037;-78
2023/06/06 04:02:17;;;;;;;10.45;5.82;;;;;;;;;;5061020;28;20253;-79
2023/06/06 04:04:43;;;;;;;9.95;6.03;;;;;;;;;;5059869;28;20025;-79
2023/06/06 04:07:09;;;;;;;8.52;6.45;;;;;;;;;;5041403;28;20021;-78
2023/06/06 04:09:35;;;;;;;11.77;6.38;;;;;;;;;;5059429;28;20029;-79
2023/06/06 04:12:01;;;;;;;8.38;6.28;;;;;;;;;;5059878;28;20025;-79
2023/06/06 04:14:26;;;;;;;11.93;6.03;;;;;;;;;;5058605;28;20024;-78
2023/06/06 04:16:51;;;;;;;8.97;6.30;;;;;;;;;;5041298;28;20078;-78
2023/06/06 04:19:17;;;;;;;14.60;6.15;;;;;;;;;;5042234;28;20258;-76
2023/06/06 04:21:42;;;;;;;9.65;6.40;;;;;;;;;;5058738;28;20016;-78
2023/06/06 04:24:07;;;;;;;10.77;6.25;;;;;;;;;;5059332;28;20029;-78
2023/06/06 04:26:33;;;;;;;10.87;6.40;;;;;;;;;;5058914;28;20036;-78
2023/06/06 04:29:02;;;;;;;8.32;6.13;;;;;;;;;;5041601;28;20254;-78
2023/06/06 04:31:32;;;;;;;9.65;6.40;;;;;;;;;;5058489;28;20032;-78
2023/06/06 04:34:01;;;;;;;11.35;6.28;;;;;;;;;;5059223;28;20017;-78
2023/06/06 04:36:26;;;;;;;8.65;6.25;;;;;;;;;;5059247;28;20025;-78
2023/06/06 04:38:52;;;;;;;10.68;5.70;;;;;;;;;;5058435;28;20048;-79
2023/06/06 04:41:22;;;;;;;8.20;5.78;;;;;;;;;;5058427;28;20025;-78
2023/06/06 04:43:51;;;;;;;8.98;5.90;;;;;;;;;;5059210;28;20027;-78
2023/06/06 04:46:21;;;;;;;9.50;6.10;;;;;;;;;;5058847;28;20039;-77
2023/06/06 04:48:53;;;;;;;8.40;6.22;;;;;;;;;;5056329;28;20487;-78
2023/06/06 04:51:29;;;;;;;7.75;5.75;;;;;;;;;;5056459;28;20029;-78
2023/06/06 04:54:03;;;;;;;11.25;6.22;;;;;;;;;;5038580;28;20064;-78
2023/06/06 04:56:29;;;;;;;8.10;5.75;;;;;;;;;;5056037;28;20060;-79
2023/06/06 04:58:55;;;;;;;7.70;6.10;;;;;;;;;;5056215;28;20025;-78
2023/06/06 05:01:21;;;;;;;9.32;6.00;;;;;;;;;;5055960;28;20065;-79
2023/06/06 05:03:46;;;;;;;8.55;5.65;;;;;;;;;;5055452;28;20024;-79
2023/06/06 05:06:11;;;;;;;9.07;6.13;;;;;;;;;;5058718;28;20028;-79
2023/06/06 05:08:41;;;;;;;10.33;5.73;;;;;;;;;;5064886;28;20025;-78
2023/06/06 05:11:07;;;;;;;8.48;5.50;;;;;;;;;;5044456;28;20358;-77
2023/06/06 05:13:33;;;;;;;9.15;5.72;;;;;;;;;;5043844;28;20052;-77
2023/06/06 05:15:58;;;;;;;7.90;5.70;;;;;;;;;;5063425;28;20472;-78
2023/06/06 05:18:24;;;;;;;7.60;5.67;;;;;;;;;;5065983;28;20021;-78
2023/06/06 05:20:49;;;;;;;8.73;5.72;;;;;;;;;;5063626;28;20277;-77
2023/06/06 05:23:14;;;;;;;7.68;5.47;;;;;;;;;;5065023;28;20054;-78
2023/06/06 05:25:39;;;;;;;8.50;5.43;;;;;;;;;;5064030;28;20051;-78
2023/06/06 05:28:07;;;;;;;7.23;5.67;;;;;;;;;;5065987;28;20266;-78
2023/06/06 05:30:32;;;;;;;8.13;5.72;;;;;;;;;;5050995;28;20254;-79
2023/06/06 05:32:57;;;;;;;9.45;5.10;;;;;;;;;;5067684;28;20032;-78
2023/06/06 05:35:28;;;;;;;6.85;4.65;;;;;;;;;;5068307;28;20021;-81
2023/06/06 05:37:53;;;;;;;9.50;5.55;;;;;;;;;;5061915;28;20059;-78
2023/06/06 05:40:19;;;;;;;7.53;4.88;;;;;;;;;;5070857;28;20020;-79
2023/06/06 05:42:44;;;;;;;7.25;4.80;;;;;;;;;;5052466;28;20031;-78
2023/06/06 05:45:09;;;;;;;9.17;5.40;;;;;;;;;;5045696;28;20025;-78
2023/06/06 05:47:35;;;;;;;11.65;5.70;;;;;;;;;;5041367;28;20312;-79
2023/06/06 05:50:00;;;;;;;7.85;5.70;;;;;;;;;;5040816;28;20021;-77
2023/06/06 05:52:26;;;;;;;12.77;6.88;;;;;;;;;;5040565;28;20230;-77
2023/06/06 05:55:01;;;;;;;7.90;5.45;;;;;;;;;;5059430;28;20027;-77
2023/06/06 05:57:26;;;;;;;8.55;5.60;;;;;;;;;;5060445;28;20104;-77
2023/06/06 05:59:51;;;;;;;10.25;6.75;;;;;;;;;;5057168;28;20432;-75
2023/06/06 06:02:17;;;;;;;10.63;6.43;;;;;;;;;;5056382;28;20036;-77
2023/06/06 06:04:42;;;;;;;10.77;5.95;;;;;;;;;;5037912;28;20250;-77
2023/06/06 06:07:08;;;;;;;13.85;5.15;;;;;;;;;;5055835;28;20041;-77
2023/06/06 06:09:34;;;;;;;7.53;5.47;;;;;;;;;;5037738;28;20029;-77
2023/06/06 06:11:59;;;;;;;8.25;4.85;;;;;;;;;;5057137;28;20032;-78
2023/06/06 06:14:25;;;;;;;6.88;4.70;;;;;;;;;;5060166;28;20025;-77
2023/06/06 06:16:50;;;;;;;8.32;5.63;;;;;;;;;;5055580;28;20051;-77
2023/06/06 06:19:15;;;;;;;7.90;5.27;;;;;;;;;;5055542;28;20029;-77
2023/06/06 06:21:40;;;;;;;8.83;4.80;;;;;;;;;;5055956;28;20332;-77
2023/06/06 06:24:06;;;;;;;6.68;5.20;;;;;;;;;;5056674;28;20296;-76
2023/06/06 06:26:31;;;;;;;7.03;5.30;;;;;;;;;;5056434;28;20059;-80
2023/06/06 06:28:58;;;;;;;6.68;4.60;;;;;;;;;;5057612;28;20021;-78
2023/06/06 06:31:23;;;;;;;7.50;5.40;;;;;;;;;;5060648;28;20024;-79
2023/06/06 06:33:48;;;;;;;7.87;5.37;;;;;;;;;;5060753;28;20391;-80
2023/06/06 06:36:13;;;;;;;11.17;4.97;;;;;;;;;;5060223;28;20292;-81
2023/06/06 06:38:38;;;;;;;8.67;5.03;;;;;;;;;;5058559;28;20305;-78
2023/06/06 06:41:04;;;;;;;6.38;4.35;;;;;;;;;;5058171;28;20246;-80
2023/06/06 06:43:29;;;;;;;7.28;5.13;;;;;;;;;;5058843;28;20021;-79
2023/06/06 06:45:55;;;;;;;5.57;4.72;;;;;;;;;;5059056;28;20427;-80
2023/06/06 06:48:20;;;;;;;6.38;4.70;;;;;;;;;;5059289;28;20128;-81
2023/06/06 06:50:45;;;;;;;6.87;4.60;;;;;;;;;;5058329;28;20403;-80
2023/06/06 06:53:13;;;;;;;7.18;4.88;;;;;;;;;;5040676;28;20261;-79
2023/06/06 06:55:38;;;;;;;8.52;4.95;;;;;;;;;;5058345;28;20025;-80
2023/06/06 06:58:05;;;;;;;8.65;4.70;;;;;;;;;;5057423;28;20032;-80
2023/06/06 07:00:31;;;;;;;9.05;5.50;;;;;;;;;;5040106;28;20032;-80
2023/06/06 07:02:57;;;;;;;6.38;4.57;;;;;;;;;;5057583;28;20033;-79
2023/06/06 07:05:23;;;;;;;6.07;4.53;;;;;;;;;;5040052;28;20029;-78
2023/06/06 07:07:53;;;;;;;5.53;4.30;;;;;;;;;;5058103;28;20422;-78
2023/06/06 07:10:21;;;;;;;7.80;4.88;;;;;;;;;;5058664;28;20052;-80
2023/06/06 07:12:48;;;;;;;5.55;4.22;;;;;;;;;;5056995;28;20480;-79
2023/06/06 07:15:14;;;;;;;6.60;4.75;;;;;;;;;;5058080;28;20056;-79
2023/06/06 07:17:42;;;;;;;5.40;4.75;;;;;;;;;;5058384;28;20028;-79
2023/06/06 07:20:08;;;;;;;6.15;4.45;;;;;;;;;;5039768;28;20032;-80
2023/06/06 07:22:36;;;;;;;5.75;4.75;;;;;;;;;;5039739;28;20074;-80
2023/06/06 07:25:02;;;;;;;5.88;4.60;;;;;;;;;;5056872;28;20028;-80
2023/06/06 07:27:28;;;;;;;6.18;5.13;;;;;;;;;;5058167;28;20025;-81
2023/06/06 07:29:54;;;;;;;7.05;4.25;;;;;;;;;;5040152;28;20048;-79
2023/06/06 07:32:19;;;;;;;4.63;3.88;;;;;;;;;;5057230;28;20029;-80
2023/06/06 07:34:44;;;;;;;5.37;4.33;;;;;;;;;;5056846;28;20025;-80
2023/06/06 07:37:10;;;;;;;5.73;4.13;;;;;;;;;;5056700;28;20344;-78
2023/06/06 07:39:35;;;;;;;5.60;4.40;;;;;;;;;;5038771;28;20250;-80
2023/06/06 07:42:01;;;;;;;5.47;4.30;;;;;;;;;;5038673;28;20074;-82
2023/06/06 07:44:26;;;;;;;5.68;4.80;;;;;;;;;;5038566;28;20262;-80
2023/06/06 07:46:51;;;;;;;5.13;4.23;;;;;;;;;;5056824;28;20055;-78
2023/06/06 07:49:16;;;;;;;5.27;4.00;;;;;;;;;;5056511;28;20636;-79
2023/06/06 07:51:42;;;;;;;6.30;4.13;;;;;;;;;;5056152;28;20297;-78
2023/06/06 07:54:07;;;;;;;5.97;4.65;;;;;;;;;;5055553;28;20249;-78
2023/06/06 07:56:36;;;;;;;8.23;4.97;;;;;;;;;;5038064;28;20044;-80
2023/06/06 07:59:02;;;;;;;5.93;4.32;;;;;;;;;;5056671;28;20619;-80
2023/06/06 08:01:28;;;;;;;4.97;4.20;;;;;;;;;;5038556;28;20029;-80
2023/06/06 08:03:54;;;;;;;5.93;4.70;;;;;;;;;;5056458;28;20472;-80
2023/06/06 08:06:23;;;;;;;5.35;4.20;;;;;;;;;;5039168;28;20074;-80
2023/06/06 08:08:49;;;;;;;6.40;4.55;;;;;;;;;;5039712;28;20017;-79
2023/06/06 08:11:17;;;;;;;5.18;3.85;;;;;;;;;;5057258;28;20031;-79
2023/06/06 08:13:43;;;;;;;5.60;3.92;;;;;;;;;;5057684;28;20037;-81
2023/06/06 08:16:08;;;;;;;5.78;4.47;;;;;;;;;;5058873;28;20086;-79
2023/06/06 08:18:34;;;;;;;5.88;4.00;;;;;;;;;;5040332;28;20163;-79
2023/06/06 08:20:59;;;;;;;5.43;3.97;;;;;;;;;;5057576;28;20395;-79
2023/06/06 08:23:25;;;;;;;6.28;4.07;;;;;;;;;;5057314;28;20035;-80
2023/06/06 08:25:55;;;;;;;4.78;3.80;;;;;;;;;;5056273;28;20403;-80
2023/06/06 08:28:21;;;;;;;7.22;4.25;;;;;;;;;;5037534;28;20063;-78
2023/06/06 08:30:46;;;;;;;5.53;3.92;;;;;;;;;;5038821;28;20029;-80
2023/06/06 08:33:11;;;;;;;6.53;4.07;;;;;;;;;;5055483;28;20028;-81
2023/06/06 08:35:36;;;;;;;7.20;4.37;;;;;;;;;;5055799;28;20261;-80
2023/06/06 08:38:02;;;;;;;5.27;4.07;;;;;;;;;;5055384;28;20265;-80
2023/06/06 08:40:27;;;;;;;6.33;4.23;;;;;;;;;;5055960;28;20253;-79
2023/06/06 08:42:52;;;;;;;5.75;4.45;;;;;;;;;;5037226;28;20349;-81
2023/06/06 08:45:21;;;;;;;8.07;4.05;;;;;;;;;;5054548;28;20452;-80
2023/06/06 08:47:48;;;;;;;4.05;3.60;;;;;;;;;;5054522;28;20029;-79
2023/06/06 08:50:15;;;;;;;5.72;3.90;;;;;;;;;;5054388;28;20507;-79
2023/06/06 08:52:41;;;;;;;5.43;4.07;;;;;;;;;;5055209;28;20055;-79
2023/06/06 08:55:09;;;;;;;6.18;3.97;;;;;;;;;;5036550;28;20029;-80
2023/06/06 08:57:41;;;;;;;4.78;4.18;;;;;;;;;;5036263;28;20033;-80
2023/06/06 09:00:11;;;;;;;7.95;4.45;;;;;;;;;;5054991;28;20102;-80
2023/06/06 09:02:40;;;;;;;7.75;4.70;;;;;;;;;;5036380;28;20017;-81
2023/06/06 09:05:06;;;;;;;7.22;4.15;;;;;;;;;;5056504;28;20048;-81
2023/06/06 09:07:32;;;;;;;6.05;4.75;;;;;;;;;;5057973;28;20029;-80
2023/06/06 09:09:58;;;;;;;6.93;5.00;;;;;;;;;;5058019;28;20039;-79
2023/06/06 09:12:23;;;;;;;5.77;4.70;;;;;;;;;;5058415;28;20025;-80
2023/06/06 09:14:48;;;;;;;6.18;5.10;;;;;;;;;;5062252;28;20297;-78
2023/06/06 09:17:17;;;;;;;6.63;5.03;;;;;;;;;;5057084;28;20036;-78
2023/06/06 09:19:45;;;;;;;6.10;5.32;;;;;;;;;;5055737;28;20292;-77
2023/06/06 09:22:10;;;;;;;7.25;5.40;;;;;;;;;;5037237;28;20028;-77
2023/06/06 09:24:42;;;;;;;9.25;5.25;;;;;;;;;;5003994;28;974759;-78
2023/06/06 09:27:07;;;;;;;6.40;4.95;;;;;;;;;;5057020;28;20056;-77
2023/06/06 09:29:38;;;;;;;7.67;5.10;;;;;;;;;;5057251;28;20032;-79
2023/06/06 09:32:06;;;;;;;5.82;4.72;;;;;;;;;;5041567;28;20274;-78
2023/06/06 09:34:31;;;;;;;7.03;5.18;;;;;;;;;;5058442;28;20099;-78
2023/06/06 09:36:59;;;;;;;10.02;4.95;;;;;;;;;;5057658;28;20085;-77
2023/06/06 09:39:25;;;;;;;6.03;5.10;;;;;;;;;;5056868;28;20025;-77
2023/06/06 09:41:50;;;;;;;6.47;5.10;;;;;;;;;;5039482;28;20028;-78
2023/06/06 09:44:23;;;;;;;5.82;4.68;;;;;;;;;;5058573;28;20096;-77
2023/06/06 09:46:49;;;;;;;5.80;4.78;;;;;;;;;;5040686;28;20029;-78
2023/06/06 09:49:14;;;;;;;5.90;5.07;;;;;;;;;;5058272;28;20510;-78
2023/06/06 09:51:42;;;;;;;7.15;4.82;;;;;;;;;;5039587;28;20017;-76
2023/06/06 09:54:08;;;;;;;6.22;4.18;;;;;;;;;;5058599;28;20044;-78
2023/06/06 09:56:39;;;;;;;5.50;4.72;;;;;;;;;;5041338;28;20055;-78
2023/06/06 09:59:06;;;;;;;6.68;5.10;;;;;;;;;;5040938;28;20407;-78
2023/06/06 10:01:33;;;;;;;9.90;4.93;;;;;;;;;;5058518;28;20109;-78
2023/06/06 10:03:59;;;;;;;6.22;4.90;;;;;;;;;;5059667;28;20033;-79
2023/06/06 10:06:33;;;;;;;7.65;3.42;;;;;;;;;;5058694;28;20028;-80
2023/06/06 10:08:58;;;;;;;5.10;4.43;;;;;;;;;;5058951;28;20040;-78
2023/06/06 10:11:24;;;;;;;7.28;4.32;;;;;;;;;;5058282;28;20419;-77
2023/06/06 10:13:51;;;;;;;5.35;4.35;;;;;;;;;;5057746;28;20487;-78
2023/06/06 10:16:19;;;;;;;5.75;4.55;;;;;;;;;;5057809;28;20040;-78
2023/06/06 10:18:46;;;;;;;8.70;4.18;;;;;;;;;;5058635;28;20460;-79
2023/06/06 10:21:13;;;;;;;6.45;4.75;;;;;;;;;;5058864;28;20166;-78
2023/06/06 10:23:39;;;;;;;6.05;4.07;;;;;;;;;;5057361;28;20036;-77
2023/06/06 10:26:07;;;;;;;6.10;4.43;;;;;;;;;;5059164;28;20093;-78
2023/06/06 10:28:41;;;;;;;5.85;4.03;;;;;;;;;;5056733;28;20372;-77
2023/06/06 10:31:17;;;;;;;6.78;5.40;;;;;;;;;;5056604;28;20142;-79
2023/06/06 10:33:53;;;;;;;5.80;4.63;;;;;;;;;;5057308;28;20096;-78
2023/06/06 10:36:18;;;;;;;6.38;5.10;;;;;;;;;;5055928;28;20029;-78
2023/06/06 10:39:15;;;;;;;6.18;5.03;;;;;;;;;;5056060;28;20036;-78
2023/06/06 10:41:42;;;;;;;7.22;5.30;;;;;;;;;;5054811;28;20053;-76
2023/06/06 10:44:08;;;;;;;5.47;4.00;;;;;;;;;;5055883;28;20040;-77
2023/06/06 10:46:34;;;;;;;3.40;2.50;;;;;;;;;;5054761;28;20025;-77
2023/06/06 10:49:00;;;;;;;3.25;2.17;;;;;;;;;;5055246;28;20471;-78
2023/06/06 10:51:34;;;;;;;6.32;2.78;;;;;;;;;;5056233;28;20052;-77
2023/06/06 10:54:21;;;;;;;5.40;2.95;;;;;;;;;;5054187;28;20021;-77
2023/06/06 10:56:53;;;;;;;3.85;2.60;;;;;;;;;;5054181;28;20111;-77
2023/06/06 10:59:25;;;;;;;4.05;2.40;;;;;;;;;;5057086;28;20029;-77
2023/06/06 11:01:52;;;;;;;5.05;2.80;;;;;;;;;;5037312;28;20391;-77
2023/06/06 11:04:21;;;;;;;3.95;2.58;;;;;;;;;;5054286;28;20029;-77
2023/06/06 11:06:47;;;;;;;3.50;2.80;;;;;;;;;;5054692;28;20085;-78
2023/06/06 11:09:24;;;;;;;3.63;2.92;;;;;;;;;;5056379;28;20025;-77
2023/06/06 11:11:50;;;;;;;7.38;2.88;;;;;;;;;;5055998;28;20096;-78
2023/06/06 11:14:21;;;;;;;3.55;2.40;;;;;;;;;;5038065;28;20071;-78
2023/06/06 11:16:46;;;;;;;3.00;2.67;;;;;;;;;;5036905;28;20029;-77
2023/06/06 11:19:29;;;;;;;5.07;2.80;;;;;;;;;;5055772;28;20036;-77
2023/06/06 11:21:59;;;;;;;4.25;2.72;;;;;;;;;;5055884;28;20055;-78
2023/06/06 11:24:35;;;;;;;4.03;2.90;;;;;;;;;;5056118;28;20039;-78
2023/06/06 11:27:01;;;;;;;5.65;2.90;;;;;;;;;;5054631;28;20563;-77
2023/06/06 11:29:27;;;;;;;3.30;2.80;;;;;;;;;;5055117;28;20056;-78
2023/06/06 11:31:52;;;;;;;3.83;3.08;;;;;;;;;;5054989;28;20032;-77
2023/06/06 11:34:17;;;;;;;4.47;3.10;;;;;;;;;;5053356;28;20040;-77
2023/06/06 11:36:44;;;;;;;4.20;2.90;;;;;;;;;;5053691;28;20265;-78
2023/06/06 11:39:12;;;;;;;3.75;2.83;;;;;;;;;;5053860;28;20462;-77
2023/06/06 11:41:46;;;;;;;3.88;2.90;;;;;;;;;;5053637;28;20025;-77
2023/06/06 11:44:14;;;;;;;5.63;2.65;;;;;;;;;;5053327;28;20025;-79
2023/06/06 11:46:50;;;;;;;3.42;2.50;;;;;;;;;;5053406;28;20491;-77
2023/06/06 11:49:17;;;;;;;2.70;2.40;;;;;;;;;;5057153;28;20116;-78
2023/06/06 11:51:43;;;;;;;3.78;2.53;;;;;;;;;;5057289;28;20021;-77
2023/06/06 11:54:13;;;;;;;3.72;2.60;;;;;;;;;;5056590;28;20033;-77
2023/06/06 11:56:39;;;;;;;3.38;2.22;;;;;;;;;;5056689;28;20025;-78
2023/06/06 11:59:05;;;;;;;2.92;2.55;;;;;;;;;;5054084;28;20020;-78
2023/06/06 12:01:30;;;;;;;3.10;2.47;;;;;;;;;;5036234;28;20025;-77
2023/06/06 12:03:56;;;;;;;4.00;2.43;;;;;;;;;;5053105;28;20414;-77
2023/06/06 12:06:22;;;;;;;4.57;2.65;;;;;;;;;;5052962;28;20262;-77
2023/06/06 12:08:48;;;;;;;3.20;2.70;;;;;;;;;;5053933;28;20029;-78
2023/06/06 12:11:21;;;;;;;4.15;2.70;;;;;;;;;;5054869;28;20048;-79
2023/06/06 12:13:47;;;;;;;3.10;2.60;;;;;;;;;;5055535;28;20444;-77
2023/06/06 12:16:12;;;;;;;4.95;2.90;;;;;;;;;;5035552;28;20060;-77
2023/06/06 12:18:48;;;;;;;3.97;2.80;;;;;;;;;;5053925;28;20032;-82
2023/06/06 12:21:16;;;;;;;2.95;2.42;;;;;;;;;;5057011;28;20056;-82
2023/06/06 12:23:43;;;;;;;3.45;2.70;;;;;;;;;;5055581;28;20020;-78
2023/06/06 12:26:12;;;;;;;3.72;2.80;;;;;;;;;;5055848;28;20044;-79
2023/06/06 12:28:57;;;;;;;5.07;2.90;;;;;;;;;;5055665;28;20491;-79
2023/06/06 12:31:24;;;;;;;5.10;2.85;;;;;;;;;;5055212;28;20060;-79
2023/06/06 12:33:52;;;;;;;4.43;2.92;;;;;;;;;;5055582;28;20024;-79
2023/06/06 12:36:19;;;;;;;3.35;2.80;;;;;;;;;;5055611;28;20037;-79
2023/06/06 12:38:52;;;;;;;3.33;2.83;;;;;;;;;;5054446;28;20039;-78
2023/06/06 12:41:17;;;;;;;4.22;3.13;;;;;;;;;;5055783;28;20107;-79
2023/06/06 12:43:42;;;;;;;5.70;3.50;;;;;;;;;;5056364;28;20060;-79
2023/06/06 12:46:07;;;;;;;5.47;3.90;;;;;;;;;;5037342;28;20257;-78
2023/06/06 12:48:32;;;;;;;3.50;3.17;;;;;;;;;;5054838;28;20250;-80
2023/06/06 12:50:58;;;;;;;5.70;3.63;;;;;;;;;;5054133;28;20291;-77
2023/06/06 12:53:25;;;;;;;60.78;5.38;;;;;;;;;;5054462;28;20120;-78
2023/06/06 12:55:50;;;;;;;5.90;4.20;;;;;;;;;;5036440;28;20021;-79
2023/06/06 12:58:16;;;;;;;5.20;4.20;;;;;;;;;;5054728;28;20541;-79
2023/06/06 13:00:41;;;;;;;5.40;4.78;;;;;;;;;;5036831;28;20253;-78
2023/06/06 13:03:09;;;;;;;7.87;5.53;;;;;;;;;;5053657;28;20025;-78
2023/06/06 13:05:35;;;;;;;7.85;5.82;;;;;;;;;;5053895;28;20258;-77
2023/06/06 13:08:00;;;;;;;7.50;6.35;;;;;;;;;;5037065;28;20029;-79
2023/06/06 13:10:25;;;;;;;6.93;6.13;;;;;;;;;;5054744;28;20021;-79
2023/06/06 13:12:51;;;;;;;7.07;5.67;;;;;;;;;;5054784;28;20361;-78
2023/06/06 13:15:16;;;;;;;7.47;6.17;;;;;;;;;;5055285;28;20297;-78
2023/06/06 13:17:41;;;;;;;7.20;5.90;;;;;;;;;;5037076;28;20273;-78
2023/06/06 13:20:10;;;;;;;6.43;4.87;;;;;;;;;;5053864;28;20091;-77
2023/06/06 13:22:35;;;;;;;5.75;4.47;;;;;;;;;;5054224;28;20256;-78
2023/06/06 13:25:01;;;;;;;6.80;5.10;;;;;;;;;;5053966;28;20571;-79
2023/06/06 13:27:26;;;;;;;5.40;3.97;;;;;;;;;;5036749;28;20021;-78
2023/06/06 13:29:51;;;;;;;6.75;3.50;;;;;;;;;;5054230;28;20135;-78
2023/06/06 13:32:17;;;;;;;5.10;3.50;;;;;;;;;;5054319;28;20052;-79
2023/06/06 13:34:42;;;;;;;5.32;3.90;;;;;;;;;;5054400;28;20254;-79
2023/06/06 13:37:07;;;;;;;4.43;4.00;;;;;;;;;;5054923;28;20025;-78
2023/06/06 13:39:32;;;;;;;7.70;4.27;;;;;;;;;;5055162;28;20332;-78
2023/06/06 13:41:58;;;;;;;4.30;3.72;;;;;;;;;;5054461;28;20254;-80
2023/06/06 13:44:23;;;;;;;6.82;4.22;;;;;;;;;;5054879;28;20029;-78
2023/06/06 13:46:49;;;;;;;6.05;4.05;;;;;;;;;;5054081;28;20472;-79
2023/06/06 13:49:17;;;;;;;6.13;4.30;;;;;;;;;;5054117;28;20025;-78
2023/06/06 13:51:45;;;;;;;5.90;4.88;;;;;;;;;;5057372;28;20467;-77
2023/06/06 13:54:12;;;;;;;5.30;4.00;;;;;;;;;;5039693;28;20078;-77
2023/06/06 13:56:39;;;;;;;7.05;4.40;;;;;;;;;;5039499;28;20110;-77
2023/06/06 13:59:05;;;;;;;4.93;4.28;;;;;;;;;;5039740;28;20033;-78
2023/06/06 14:01:30;;;;;;;4.35;3.95;;;;;;;;;;5058249;28;20028;-79
2023/06/06 14:03:56;;;;;;;4.72;4.22;;;;;;;;;;5057312;28;20020;-76
2023/06/06 14:06:21;;;;;;;5.32;4.45;;;;;;;;;;5056077;28;20476;-76
2023/06/06 14:08:47;;;;;;;6.78;4.57;;;;;;;;;;5056523;28;20037;-79
2023/06/06 14:11:14;;;;;;;6.28;4.25;;;;;;;;;;5058461;28;20023;-82
2023/06/06 14:13:39;;;;;;;5.20;4.10;;;;;;;;;;5040867;28;20419;-79
2023/06/06 14:16:05;;;;;;;6.10;4.35;;;;;;;;;;5057329;28;20073;-78
2023/06/06 14:18:30;;;;;;;6.97;4.22;;;;;;;;;;5057495;28;20403;-78
2023/06/06 14:21:19;;;;;;;5.00;3.97;;;;;;;;;;5057442;28;20025;-77
2023/06/06 14:23:48;;;;;;;5.25;4.43;;;;;;;;;;5056873;28;20269;-78
2023/06/06 14:26:14;;;;;;;11.23;4.60;;;;;;;;;;5055408;28;20108;-78
2023/06/06 14:28:40;;;;;;;5.65;3.92;;;;;;;;;;5056245;28;20075;-78
2023/06/06 14:31:06;;;;;;;5.00;4.35;;;;;;;;;;5055098;28;20025;-77
2023/06/06 14:33:31;;;;;;;11.05;4.78;;;;;;;;;;5055587;28;20025;-79
2023/06/06 14:35:57;;;;;;;5.13;4.40;;;;;;;;;;5056052;28;20056;-78
2023/06/06 14:38:23;;;;;;;9.52;5.05;;;;;;;;;;5057255;28;20057;-78
2023/06/06 14:40:48;;;;;;;7.88;4.78;;;;;;;;;;5056256;28;20545;-77